Time;durP1;ratioP1;P1;durP2;ratioP2;P2;SDS_P1;SDS_P2;PMS_P1;PMS_P2;Temp;Humidity;BMP_temperature;BMP_pressure;BME280_temperature;BME280_humidity;BME280_pressure;Samples;Min_cycle;Max_cycle;Signal;HPM_P1;HPM_P2
2022/08/02 00:01:47;;;;;;;0.50;0.50;;;24.60;60.20;25.30;96685.00;;;;5057464;28;20227;-83
2022/08/02 00:04:14;;;;;;;0.50;0.50;;;24.60;60.20;25.30;96693.00;;;;5045813;28;20674;-83
2022/08/02 00:06:41;;;;;;;0.60;0.50;;;24.60;60.10;25.30;96694.00;;;;5057635;28;20200;-84
2022/08/02 00:09:09;;;;;;;0.40;0.40;;;24.60;60.00;25.20;96701.00;;;;5041682;28;20245;-84
2022/08/02 00:11:36;;;;;;;0.50;0.50;;;24.60;60.20;25.20;96705.00;;;;5057368;28;20657;-83
2022/08/02 00:14:05;;;;;;;0.37;0.37;;;24.60;60.10;25.20;96702.00;;;;5058765;28;20242;-84
2022/08/02 00:16:32;;;;;;;0.90;0.60;;;24.60;60.10;25.10;96695.00;;;;5055002;28;20731;-84
2022/08/02 00:19:00;;;;;;;0.40;0.40;;;24.60;60.00;25.10;96703.00;;;;5060300;28;20664;-83
2022/08/02 00:21:27;;;;;;;1.10;0.40;;;24.50;60.00;25.10;96700.00;;;;5054924;28;20214;-84
2022/08/02 00:23:54;;;;;;;0.90;0.50;;;24.50;60.10;25.00;96700.00;;;;5071236;28;20651;-84
2022/08/02 00:26:22;;;;;;;0.30;0.30;;;24.40;60.00;25.00;96702.00;;;;5040664;28;20207;-82
2022/08/02 00:28:49;;;;;;;0.40;0.40;;;24.40;60.10;24.90;96712.00;;;;5051068;28;20197;-84
2022/08/02 00:31:17;;;;;;;0.60;0.40;;;24.40;60.30;24.90;96712.00;;;;5052646;28;20310;-83
2022/08/02 00:33:44;;;;;;;1.00;0.40;;;24.40;60.50;24.90;96728.00;;;;5052523;28;20239;-86
2022/08/02 00:36:12;;;;;;;0.50;0.40;;;24.30;60.40;24.90;96724.00;;;;5056065;28;20218;-83
2022/08/02 00:38:39;;;;;;;0.30;0.30;;;24.30;60.50;24.80;96727.00;;;;5055554;28;20202;-83
2022/08/02 00:41:15;;;;;;;0.30;0.30;;;24.30;60.50;24.80;96730.00;;;;5050031;28;20231;-84
2022/08/02 00:43:42;;;;;;;0.43;0.37;;;24.30;60.80;24.80;96739.00;;;;5049320;28;20197;-83
2022/08/02 00:46:09;;;;;;;0.20;0.20;;;24.20;60.60;24.80;96735.00;;;;5048140;28;20195;-83
2022/08/02 00:48:38;;;;;;;0.30;0.30;;;24.20;60.80;24.70;96736.00;;;;5061834;28;20286;-83
2022/08/02 00:51:05;;;;;;;0.73;0.40;;;24.20;61.00;24.70;96723.00;;;;5046757;28;20225;-82
2022/08/02 00:53:33;;;;;;;0.40;0.40;;;24.20;61.00;24.70;96730.00;;;;5059771;28;20257;-82
2022/08/02 00:56:02;;;;;;;0.40;0.40;;;24.10;60.90;24.70;96728.00;;;;5051363;28;20194;-84
2022/08/02 00:58:29;;;;;;;0.50;0.50;;;24.10;61.00;24.60;96721.00;;;;5058273;28;20654;-83
2022/08/02 01:00:59;;;;;;;1.17;0.30;;;24.00;61.00;24.60;96721.00;;;;5054311;28;20239;-84
2022/08/02 01:03:27;;;;;;;0.30;0.30;;;24.00;61.10;24.50;96725.00;;;;5053311;28;20196;-84
2022/08/02 01:05:55;;;;;;;0.50;0.40;;;24.00;61.20;24.50;96721.00;;;;5047005;28;20203;-85
2022/08/02 01:08:23;;;;;;;0.33;0.33;;;24.00;61.30;24.50;96722.00;;;;5052760;28;20205;-83
2022/08/02 01:10:50;;;;;;;0.83;0.20;;;24.00;61.40;24.40;96718.00;;;;5051689;28;20249;-85
2022/08/02 01:13:17;;;;;;;0.33;0.33;;;23.90;61.60;24.40;96717.00;;;;5042638;28;20221;-83
2022/08/02 01:16:02;;;;;;;0.37;0.37;;;23.90;61.60;24.40;96717.00;;;;5041278;28;20284;-86
2022/08/02 01:18:38;;;;;;;0.30;0.30;;;23.90;61.80;24.30;96713.00;;;;5050981;28;20232;-84
2022/08/02 01:21:38;;;;;;;0.30;0.30;;;23.80;61.90;24.30;96712.00;;;;5046940;28;20569;-84
2022/08/02 01:24:30;;;;;;;0.63;0.50;;;23.80;62.10;24.30;96712.00;;;;5051907;28;20190;-85
2022/08/02 01:27:19;;;;;;;0.30;0.30;;;23.80;62.30;24.20;96713.00;;;;5043394;28;20652;-83
2022/08/02 01:29:53;;;;;;;0.30;0.30;;;23.70;62.30;24.20;96713.00;;;;5056241;28;20257;-84
2022/08/02 01:32:31;;;;;;;1.07;0.70;;;23.70;62.30;24.20;96722.00;;;;5048339;28;20299;-83
2022/08/02 01:35:07;;;;;;;0.30;0.30;;;23.70;62.50;24.10;96714.00;;;;5048929;28;20223;-83
2022/08/02 01:37:44;;;;;;;1.03;0.30;;;23.60;62.40;24.10;96713.00;;;;5052397;28;20278;-83
2022/08/02 01:40:19;;;;;;;0.40;0.40;;;23.60;62.70;24.10;96714.00;;;;5051594;28;20200;-83
2022/08/02 01:42:51;;;;;;;0.40;0.40;;;23.50;62.70;24.00;96720.00;;;;5043025;28;20668;-84
2022/08/02 01:45:21;;;;;;;0.40;0.40;;;23.50;62.90;24.00;96711.00;;;;5051551;28;20224;-83
2022/08/02 01:47:51;;;;;;;0.40;0.40;;;23.50;63.00;24.00;96711.00;;;;5050162;28;20227;-83
2022/08/02 01:50:25;;;;;;;0.80;0.40;;;23.50;63.10;24.00;96707.00;;;;5041395;28;20227;-83
2022/08/02 01:52:57;;;;;;;1.07;0.50;;;23.40;63.00;23.90;96701.00;;;;5044082;28;20777;-83
2022/08/02 01:55:30;;;;;;;0.37;0.37;;;23.40;63.20;23.90;96701.00;;;;5054327;28;20729;-85
2022/08/02 01:58:00;;;;;;;0.53;0.37;;;23.40;63.30;23.90;96700.00;;;;5039087;28;20220;-83
2022/08/02 02:00:33;;;;;;;0.40;0.40;;;23.40;63.50;23.90;96699.00;;;;5043757;28;20280;-83
2022/08/02 02:03:05;;;;;;;0.53;0.43;;;23.40;63.70;23.90;96691.00;;;;5039248;28;20249;-83
2022/08/02 02:05:35;;;;;;;1.60;0.40;;;23.30;63.60;23.90;96693.00;;;;5045815;28;20189;-83
2022/08/02 02:08:06;;;;;;;1.17;0.70;;;23.30;63.70;23.90;96691.00;;;;5040801;28;20198;-83
2022/08/02 02:10:37;;;;;;;0.40;0.40;;;23.30;63.80;23.80;96693.00;;;;5052243;28;20244;-83
2022/08/02 02:13:08;;;;;;;0.40;0.40;;;23.30;63.80;23.80;96690.00;;;;5045156;28;20220;-83
2022/08/02 02:15:43;;;;;;;1.07;0.47;;;23.30;64.00;23.80;96689.00;;;;5043775;28;20196;-85
2022/08/02 02:18:14;;;;;;;0.33;0.33;;;23.30;64.30;23.80;96688.00;;;;5042432;28;20287;-83
2022/08/02 02:20:43;;;;;;;0.37;0.37;;;23.30;64.10;23.80;96690.00;;;;5046721;28;20212;-84
2022/08/02 02:23:11;;;;;;;0.50;0.30;;;23.30;64.10;23.70;96686.00;;;;5055860;28;20208;-83
2022/08/02 02:25:41;;;;;;;0.30;0.30;;;23.20;64.20;23.70;96698.00;;;;5054990;28;20345;-83
2022/08/02 02:28:15;;;;;;;0.40;0.40;;;23.20;64.30;23.70;96696.00;;;;5056727;28;20200;-83
2022/08/02 02:30:49;;;;;;;0.30;0.30;;;23.20;64.50;23.70;96694.00;;;;5054535;28;20232;-84
2022/08/02 02:33:20;;;;;;;0.40;0.40;;;23.20;64.60;23.70;96693.00;;;;5054180;28;20240;-83
2022/08/02 02:35:51;;;;;;;0.80;0.80;;;23.20;64.70;23.70;96700.00;;;;5049283;28;20224;-83
2022/08/02 02:38:21;;;;;;;0.43;0.40;;;23.10;64.70;23.70;96697.00;;;;5057785;28;20203;-83
2022/08/02 02:40:50;;;;;;;0.30;0.30;;;23.10;64.80;23.70;96700.00;;;;5052239;28;20616;-83
2022/08/02 02:43:18;;;;;;;0.40;0.40;;;23.10;64.90;23.60;96695.00;;;;5036249;28;20260;-83
2022/08/02 02:45:48;;;;;;;0.50;0.50;;;23.10;65.00;23.60;96703.00;;;;5039464;28;20208;-83
2022/08/02 02:48:17;;;;;;;0.47;0.47;;;23.10;65.10;23.60;96699.00;;;;5047831;28;20235;-82
2022/08/02 02:50:45;;;;;;;1.20;0.40;;;23.10;65.10;23.60;96702.00;;;;5049751;28;20879;-83
2022/08/02 02:53:16;;;;;;;0.27;0.27;;;23.10;65.10;23.60;96699.00;;;;5043177;28;20217;-84
2022/08/02 02:55:45;;;;;;;0.57;0.57;;;23.10;65.20;23.60;96699.00;;;;5047730;28;20224;-83
2022/08/02 02:58:13;;;;;;;0.50;0.40;;;23.00;65.30;23.60;96698.00;;;;5042329;28;20237;-83
2022/08/02 03:03:28;;;;;;;1.10;0.47;;;23.00;65.40;23.50;96706.00;;;;5053840;28;20259;-83
2022/08/02 03:05:56;;;;;;;0.70;0.70;;;23.00;65.50;23.60;96710.00;;;;5055969;28;20193;-82
2022/08/02 03:08:23;;;;;;;0.50;0.50;;;23.00;65.50;23.60;96711.00;;;;5055312;28;20232;-83
2022/08/02 03:10:50;;;;;;;0.50;0.50;;;23.00;65.60;23.60;96713.00;;;;5053615;28;20319;-83
2022/08/02 03:13:18;;;;;;;0.40;0.40;;;23.00;65.70;23.60;96712.00;;;;5056475;28;20704;-84
2022/08/02 03:15:47;;;;;;;0.60;0.50;;;23.00;65.80;23.60;96717.00;;;;5055094;28;20248;-84
2022/08/02 03:18:35;;;;;;;0.40;0.40;;;23.00;65.90;23.60;96722.00;;;;5054443;28;21012;-83
2022/08/02 03:21:04;;;;;;;0.40;0.40;;;23.00;66.30;23.60;96719.00;;;;5053272;28;20309;-82
2022/08/02 03:23:32;;;;;;;1.57;0.60;;;23.00;65.80;23.60;96717.00;;;;5055295;28;20283;-83
2022/08/02 03:26:00;;;;;;;0.40;0.40;;;23.00;65.90;23.60;96721.00;;;;5051555;28;20260;-83
2022/08/02 03:28:28;;;;;;;1.20;0.60;;;23.00;65.90;23.60;96727.00;;;;5051629;28;21957;-83
2022/08/02 03:30:55;;;;;;;0.37;0.37;;;23.00;66.10;23.60;96724.00;;;;5049810;28;20294;-82
2022/08/02 03:33:24;;;;;;;1.40;1.30;;;23.00;66.80;23.60;96725.00;;;;5045983;28;20264;-83
2022/08/02 03:35:58;;;;;;;0.83;0.83;;;23.00;66.20;23.60;96727.00;;;;5049899;28;20283;-82
2022/08/02 03:38:27;;;;;;;0.57;0.57;;;23.00;66.40;23.70;96733.00;;;;5066017;28;20670;-85
2022/08/02 03:40:56;;;;;;;0.50;0.50;;;23.00;66.30;23.70;96732.00;;;;5053753;28;20217;-83
2022/08/02 03:43:25;;;;;;;0.43;0.43;;;23.00;66.30;23.70;96731.00;;;;5046330;28;20220;-83
2022/08/02 03:45:54;;;;;;;0.57;0.57;;;23.00;66.40;23.70;96736.00;;;;5046650;28;20207;-83
2022/08/02 03:48:22;;;;;;;1.37;0.60;;;23.10;66.60;23.70;96734.00;;;;5054329;28;20232;-83
2022/08/02 03:50:51;;;;;;;0.60;0.43;;;23.00;67.30;23.70;96730.00;;;;5058214;28;20228;-83
2022/08/02 03:53:20;;;;;;;1.30;0.60;;;23.00;66.50;23.70;96724.00;;;;5049326;28;20244;-84
2022/08/02 03:55:48;;;;;;;0.67;0.67;;;23.00;66.30;23.60;96726.00;;;;5051735;28;20575;-83
2022/08/02 03:58:19;;;;;;;0.90;0.57;;;23.10;66.40;23.60;96739.00;;;;5054080;28;20203;-83
2022/08/02 04:00:47;;;;;;;0.60;0.57;;;23.10;66.50;23.60;96730.00;;;;5052269;28;20284;-83
2022/08/02 04:03:15;;;;;;;0.70;0.57;;;23.00;66.50;23.60;96728.00;;;;5054013;28;20652;-83
2022/08/02 04:05:42;;;;;;;0.90;0.73;;;23.00;66.70;23.60;96726.00;;;;5046285;28;20206;-84
2022/08/02 04:08:11;;;;;;;1.23;0.57;;;23.00;66.70;23.60;96725.00;;;;5054855;28;20254;-84
2022/08/02 04:13:28;;;;;;;0.97;0.50;;;23.00;67.60;23.60;96733.00;;;;5053292;28;20219;-83
2022/08/02 04:16:00;;;;;;;1.00;0.70;;;23.00;67.00;23.60;96731.00;;;;5046066;28;20227;-83
2022/08/02 04:18:39;;;;;;;1.60;0.90;;;23.00;67.00;23.60;96741.00;;;;5053649;28;20224;-83
2022/08/02 04:21:09;;;;;;;1.37;0.50;;;23.10;67.10;23.60;96740.00;;;;5055214;28;20212;-83
2022/08/02 04:23:40;;;;;;;0.50;0.50;;;23.00;66.90;23.70;96742.00;;;;5053197;28;20231;-83
2022/08/02 04:26:07;;;;;;;1.40;0.70;;;23.10;67.00;23.70;96742.00;;;;5055097;28;20224;-83
2022/08/02 04:28:36;;;;;;;0.50;0.50;;;23.00;66.80;23.70;96751.00;;;;5054744;28;20281;-83
2022/08/02 04:31:04;;;;;;;0.90;0.50;;;23.00;66.80;23.70;96755.00;;;;5064264;28;20231;-83
2022/08/02 04:33:32;;;;;;;0.60;0.60;;;23.00;66.90;23.70;96756.00;;;;5046762;28;20658;-86
2022/08/02 04:35:59;;;;;;;0.80;0.80;;;23.00;67.00;23.70;96760.00;;;;5042858;28;20291;-87
2022/08/02 04:38:26;;;;;;;0.63;0.63;;;23.00;67.20;23.70;96757.00;;;;5053244;28;20280;-86
2022/08/02 04:40:56;;;;;;;0.70;0.70;;;23.00;67.20;23.70;96765.00;;;;5054177;28;20227;-87
2022/08/02 04:43:24;;;;;;;2.20;0.67;;;23.00;67.30;23.70;96763.00;;;;5049004;28;20299;-86
2022/08/02 04:45:54;;;;;;;2.23;0.90;;;23.00;67.20;23.70;96778.00;;;;5041176;28;20262;-86
2022/08/02 04:48:22;;;;;;;1.07;0.80;;;23.00;67.30;23.70;96778.00;;;;5049179;28;20221;-85
2022/08/02 04:50:50;;;;;;;0.80;0.80;;;23.00;67.30;23.60;96782.00;;;;5057433;28;20224;-86
2022/08/02 04:53:18;;;;;;;0.63;0.60;;;23.00;67.30;23.60;96779.00;;;;5052104;28;20778;-86
2022/08/02 04:55:45;;;;;;;1.40;0.70;;;23.00;67.30;23.60;96780.00;;;;5054235;28;20225;-86
2022/08/02 04:58:14;;;;;;;0.90;0.70;;;23.00;67.30;23.60;96786.00;;;;5044435;28;20193;-86
2022/08/02 05:00:45;;;;;;;0.80;0.80;;;23.00;67.50;23.60;96791.00;;;;5052110;28;20197;-85
2022/08/02 05:03:13;;;;;;;2.53;0.90;;;23.00;67.70;23.70;96781.00;;;;5044157;28;20216;-86
2022/08/02 05:05:40;;;;;;;0.77;0.77;;;23.00;67.60;23.70;96782.00;;;;5048025;28;20200;-86
2022/08/02 05:08:07;;;;;;;0.60;0.60;;;23.00;67.70;23.70;96780.00;;;;5044300;28;20726;-86
2022/08/02 05:10:35;;;;;;;0.63;0.63;;;23.00;67.90;23.80;96780.00;;;;5051867;28;20235;-86
2022/08/02 05:13:05;;;;;;;0.80;0.50;;;23.10;67.90;23.80;96773.00;;;;5051720;28;20278;-86
2022/08/02 05:15:34;;;;;;;0.70;0.70;;;23.10;67.90;23.80;96771.00;;;;5051563;28;20296;-86
2022/08/02 05:18:01;;;;;;;1.00;0.70;;;23.10;67.80;23.80;96765.00;;;;5052606;28;20323;-85
2022/08/02 05:20:28;;;;;;;0.63;0.63;;;23.10;67.60;23.80;96760.00;;;;5057382;28;20205;-86
2022/08/02 05:22:55;;;;;;;0.63;0.63;;;23.10;67.70;23.80;96760.00;;;;5049622;28;20255;-86
2022/08/02 05:25:22;;;;;;;0.83;0.60;;;23.20;67.70;23.80;96771.00;;;;5051229;28;20581;-85
2022/08/02 05:27:50;;;;;;;1.27;0.80;;;23.20;67.60;23.80;96771.00;;;;5049989;28;20280;-85
2022/08/02 05:30:17;;;;;;;1.97;0.73;;;23.20;67.60;23.80;96771.00;;;;5050066;28;20231;-87
2022/08/02 05:32:48;;;;;;;0.50;0.50;;;23.20;67.60;23.80;96776.00;;;;5042227;28;20760;-87
2022/08/02 05:35:19;;;;;;;0.70;0.70;;;23.20;67.80;23.90;96779.00;;;;5040038;28;20616;-85
2022/08/02 05:37:47;;;;;;;0.70;0.70;;;23.20;67.80;23.90;96778.00;;;;5052038;28;20275;-87
2022/08/02 05:40:15;;;;;;;0.50;0.50;;;23.30;68.60;24.00;96774.00;;;;5060285;28;20204;-85
2022/08/02 05:42:42;;;;;;;0.93;0.60;;;23.30;67.90;24.00;96768.00;;;;5052849;28;20252;-85
2022/08/02 05:45:11;;;;;;;0.90;0.90;;;23.30;68.00;24.00;96770.00;;;;5060408;28;20246;-85
2022/08/02 05:47:38;;;;;;;0.93;0.83;;;23.30;67.90;24.10;96776.00;;;;5053522;28;20284;-85
2022/08/02 05:50:09;;;;;;;0.83;0.83;;;23.40;67.90;24.10;96770.00;;;;5046951;28;20281;-86
2022/08/02 05:52:46;;;;;;;0.67;0.67;;;23.40;68.10;24.10;96775.00;;;;5047862;28;20282;-86
2022/08/02 05:55:18;;;;;;;0.70;0.70;;;23.40;67.90;24.10;96777.00;;;;5057564;28;20211;-85
2022/08/02 05:58:10;;;;;;;0.50;0.50;;;23.40;67.70;24.10;96786.00;;;;5041105;28;20279;-85
2022/08/02 06:00:41;;;;;;;0.67;0.67;;;23.40;67.90;24.10;96768.00;;;;5052741;28;20279;-85
2022/08/02 06:03:24;;;;;;;0.90;0.70;;;23.40;67.60;24.10;96775.00;;;;5057081;28;20243;-86
2022/08/02 06:06:00;;;;;;;0.73;0.70;;;23.40;67.80;24.10;96770.00;;;;5049484;28;20235;-86
2022/08/02 06:08:37;;;;;;;0.73;0.73;;;23.50;68.00;24.10;96768.00;;;;5057057;28;20296;-86
2022/08/02 06:11:06;;;;;;;0.73;0.73;;;23.40;67.90;24.10;96768.00;;;;5056882;28;20267;-86
2022/08/02 06:13:34;;;;;;;0.70;0.70;;;23.40;68.50;24.10;96768.00;;;;5058197;28;20312;-87
2022/08/02 06:16:03;;;;;;;0.70;0.70;;;23.40;67.80;24.10;96776.00;;;;5051532;28;20229;-87
2022/08/02 06:18:33;;;;;;;2.10;0.97;;;23.40;67.70;24.10;96772.00;;;;5056028;28;20282;-87
2022/08/02 06:21:07;;;;;;;0.80;0.80;;;23.40;67.70;24.10;96772.00;;;;5048576;28;20235;-86
2022/08/02 06:23:40;;;;;;;0.70;0.70;;;23.40;67.80;24.10;96775.00;;;;5054609;28;20244;-86
2022/08/02 06:26:09;;;;;;;0.70;0.60;;;23.40;67.60;24.10;96779.00;;;;5054226;28;20232;-86
2022/08/02 06:28:39;;;;;;;0.80;0.80;;;23.40;67.60;24.10;96772.00;;;;5049150;28;20197;-85
2022/08/02 06:31:07;;;;;;;0.80;0.80;;;23.40;67.70;24.10;96769.00;;;;5053671;28;20242;-87
2022/08/02 06:33:34;;;;;;;1.00;0.87;;;23.40;67.80;24.00;96767.00;;;;5057440;28;20684;-86
2022/08/02 06:36:09;;;;;;;0.77;0.70;;;23.50;67.90;24.10;96771.00;;;;5057254;28;20284;-86
2022/08/02 06:38:42;;;;;;;0.70;0.70;;;23.50;68.10;24.10;96766.00;;;;5048962;28;20204;-86
2022/08/02 06:41:13;;;;;;;1.20;0.80;;;23.50;68.30;24.10;96766.00;;;;5057624;28;20670;-86
2022/08/02 06:43:52;;;;;;;0.60;0.60;;;23.50;68.20;24.20;96766.00;;;;5097639;22;20259;-85
2022/08/02 06:46:20;;;;;;;0.77;0.77;;;23.50;68.50;24.20;96764.00;;;;5096205;28;20226;-84
2022/08/02 06:48:47;;;;;;;0.80;0.70;;;23.60;68.20;24.30;96763.00;;;;5091676;28;20215;-85
2022/08/02 06:51:17;;;;;;;0.80;0.80;;;23.60;68.10;24.30;96764.00;;;;5099008;28;20192;-84
2022/08/02 06:53:45;;;;;;;0.97;0.90;;;23.60;68.20;24.40;96771.00;;;;5094606;28;20249;-83
2022/08/02 06:56:13;;;;;;;0.57;0.57;;;23.70;68.20;24.40;96769.00;;;;5098148;28;20624;-84
2022/08/02 06:58:46;;;;;;;0.53;0.53;;;23.80;68.30;24.50;96769.00;;;;5097831;28;20228;-84
2022/08/02 07:01:19;;;;;;;0.77;0.73;;;23.80;68.20;24.60;96775.00;;;;5096945;28;20222;-84
2022/08/02 07:03:46;;;;;;;0.70;0.70;;;23.80;68.20;24.70;96770.00;;;;5096220;28;20188;-85
2022/08/02 07:06:18;;;;;;;0.40;0.40;;;23.90;68.50;24.80;96782.00;;;;5091297;28;20636;-84
2022/08/02 07:08:47;;;;;;;0.73;0.73;;;24.00;68.50;25.00;96774.00;;;;5094040;28;20229;-85
2022/08/02 07:11:14;;;;;;;0.90;0.90;;;24.10;68.30;25.10;96777.00;;;;5094545;28;20188;-84
2022/08/02 07:13:41;;;;;;;0.73;0.73;;;24.20;67.70;25.20;96780.00;;;;5096043;28;20507;-85
2022/08/02 07:16:09;;;;;;;0.70;0.70;;;24.30;67.40;25.30;96777.00;;;;5092751;28;20226;-86
2022/08/02 07:18:37;;;;;;;0.80;0.80;;;24.40;67.30;25.30;96774.00;;;;5092572;28;20220;-86
2022/08/02 07:21:07;;;;;;;0.50;0.50;;;24.40;66.90;25.50;96771.00;;;;5092559;28;20281;-86
2022/08/02 07:23:39;;;;;;;0.57;0.57;;;24.60;67.00;25.60;96779.00;;;;5091404;28;20305;-87
2022/08/02 07:26:06;;;;;;;0.80;0.80;;;24.70;66.80;25.80;96774.00;;;;5090536;28;20307;-86
2022/08/02 07:28:34;;;;;;;1.13;1.03;;;24.80;66.60;25.90;96786.00;;;;5091277;28;20223;-87
2022/08/02 07:31:01;;;;;;;0.53;0.50;;;24.90;66.50;26.10;96784.00;;;;5088352;28;20206;-86
2022/08/02 07:33:28;;;;;;;0.80;0.80;;;25.10;66.20;26.20;96786.00;;;;5088919;28;20568;-87
2022/08/02 07:35:56;;;;;;;0.70;0.70;;;25.20;66.10;26.40;96786.00;;;;5092167;28;20620;-86
2022/08/02 07:38:23;;;;;;;0.80;0.80;;;25.30;65.80;26.50;96788.00;;;;5093118;28;20576;-86
2022/08/02 07:40:52;;;;;;;0.77;0.77;;;25.40;65.40;26.60;96784.00;;;;5084714;28;20234;-86
2022/08/02 07:43:28;;;;;;;0.70;0.70;;;25.50;65.20;26.70;96783.00;;;;5093501;28;20214;-86
2022/08/02 07:45:56;;;;;;;0.70;0.70;;;25.70;64.70;26.70;96784.00;;;;5089449;28;20195;-86
2022/08/02 07:48:23;;;;;;;0.67;0.57;;;25.80;64.70;26.80;96786.00;;;;5099256;22;20318;-85
2022/08/02 07:50:51;;;;;;;1.13;0.60;;;25.80;64.10;26.80;96783.00;;;;5067276;28;20192;-84
2022/08/02 07:53:19;;;;;;;0.80;0.80;;;25.90;63.90;26.90;96782.00;;;;5069587;28;20269;-84
2022/08/02 07:55:46;;;;;;;0.90;0.90;;;25.90;63.90;27.10;96780.00;;;;5071735;28;20253;-85
2022/08/02 07:58:15;;;;;;;0.53;0.53;;;26.00;64.10;27.20;96782.00;;;;5072070;28;20692;-85
2022/08/02 08:00:44;;;;;;;1.10;0.73;;;26.10;63.90;27.40;96785.00;;;;5071339;28;20604;-85
2022/08/02 08:03:11;;;;;;;0.73;0.60;;;26.20;63.80;27.50;96781.00;;;;5073289;28;20204;-85
2022/08/02 08:05:39;;;;;;;0.70;0.63;;;26.30;63.80;27.60;96774.00;;;;5071706;28;20203;-85
2022/08/02 08:08:07;;;;;;;0.80;0.80;;;26.50;63.80;27.80;96775.00;;;;5070479;28;20227;-85
2022/08/02 08:10:34;;;;;;;1.13;0.60;;;26.60;62.90;27.90;96769.00;;;;5066485;28;20200;-85
2022/08/02 08:13:01;;;;;;;0.67;0.67;;;26.70;62.60;28.00;96773.00;;;;5067981;28;20299;-85
2022/08/02 08:15:30;;;;;;;0.60;0.60;;;26.80;62.60;28.10;96772.00;;;;5067908;28;20212;-85
2022/08/02 08:17:57;;;;;;;1.00;0.80;;;26.90;62.40;28.30;96773.00;;;;5072511;28;20212;-85
2022/08/02 08:20:24;;;;;;;1.33;0.70;;;27.00;62.10;28.40;96773.00;;;;5073768;28;20196;-84
2022/08/02 08:22:52;;;;;;;1.23;0.80;;;27.10;62.00;28.50;96771.00;;;;5073037;28;20245;-85
2022/08/02 08:25:19;;;;;;;0.80;0.50;;;27.20;62.10;28.70;96772.00;;;;5069472;28;20192;-85
2022/08/02 08:27:51;;;;;;;0.63;0.63;;;27.40;61.40;28.90;96775.00;;;;5064828;28;20196;-86
2022/08/02 08:30:19;;;;;;;0.87;0.87;;;27.50;61.40;29.00;96771.00;;;;5067310;28;20610;-86
2022/08/02 08:32:48;;;;;;;0.63;0.60;;;27.60;60.80;29.20;96770.00;;;;5071622;28;20220;-85
2022/08/02 08:35:18;;;;;;;0.70;0.70;;;27.80;60.30;29.30;96774.00;;;;5064395;28;20196;-85
2022/08/02 08:37:46;;;;;;;1.48;0.80;;;27.90;60.30;29.40;96768.00;;;;5070746;28;20196;-85
2022/08/02 08:40:17;;;;;;;1.15;0.80;;;28.10;60.60;29.60;96766.00;;;;5068129;28;20200;-85
2022/08/02 08:42:44;;;;;;;0.63;0.63;;;28.20;60.00;29.80;96765.00;;;;5069062;28;20203;-85
2022/08/02 08:45:12;;;;;;;0.70;0.70;;;28.30;59.70;29.90;96762.00;;;;5063962;28;20203;-85
2022/08/02 08:47:41;;;;;;;0.70;0.70;;;28.40;59.60;30.10;96770.00;;;;5063177;28;20272;-86
2022/08/02 08:50:16;;;;;;;0.70;0.70;;;28.60;59.30;30.20;96770.00;;;;5070105;28;20204;-85
2022/08/02 08:52:49;;;;;;;0.60;0.60;;;28.80;59.00;30.40;96770.00;;;;5062325;28;20215;-85
2022/08/02 08:55:18;;;;;;;0.80;0.80;;;28.90;58.50;30.60;96772.00;;;;5065278;28;20226;-85
2022/08/02 08:57:58;;;;;;;0.47;0.47;;;29.10;58.20;30.80;96769.00;;;;5073099;28;20667;-85
2022/08/02 09:00:34;;;;;;;0.55;0.55;;;29.20;58.00;30.90;96775.00;;;;5063465;28;20605;-85
2022/08/02 09:03:03;;;;;;;0.52;0.52;;;29.40;57.90;31.00;96774.00;;;;5070675;28;20191;-86
2022/08/02 09:05:35;;;;;;;0.82;0.60;;;29.50;57.70;31.10;96782.00;;;;5072317;28;20278;-85
2022/08/02 09:08:07;;;;;;;1.00;1.00;;;29.60;57.10;31.30;96782.00;;;;5072415;28;20227;-85
2022/08/02 09:10:38;;;;;;;0.45;0.45;;;29.70;57.10;31.50;96777.00;;;;5071748;28;20199;-85
2022/08/02 09:13:15;;;;;;;0.90;0.82;;;29.80;56.20;31.60;96776.00;;;;5072054;28;20215;-85
2022/08/02 09:15:45;;;;;;;1.38;0.70;;;29.90;56.00;31.80;96783.00;;;;5069912;28;20275;-85
2022/08/02 09:18:13;;;;;;;1.10;0.60;;;30.10;56.50;32.00;96788.00;;;;5071669;28;20219;-85
2022/08/02 09:20:59;;;;;;;0.38;0.38;;;30.30;55.50;32.20;96786.00;;;;5072192;28;20878;-85
2022/08/02 09:23:37;;;;;;;1.30;0.43;;;30.40;54.80;32.50;96783.00;;;;5063585;28;20203;-85
2022/08/02 09:26:06;;;;;;;0.98;0.80;;;30.60;54.00;32.60;96793.00;;;;5059234;28;20257;-85
2022/08/02 09:28:37;;;;;;;1.77;0.57;;;30.70;54.20;32.80;96789.00;;;;5070859;28;20273;-85
2022/08/02 09:31:07;;;;;;;0.57;0.55;;;30.90;53.90;33.00;96795.00;;;;5061068;28;20201;-85
2022/08/02 09:33:36;;;;;;;0.50;0.50;;;31.10;53.60;33.20;96793.00;;;;5055378;28;20216;-85
2022/08/02 09:36:07;;;;;;;0.50;0.50;;;31.30;53.60;33.30;96799.00;;;;5065498;28;20253;-85
2022/08/02 09:38:36;;;;;;;0.52;0.52;;;31.50;52.90;33.30;96804.00;;;;5056925;28;20292;-89
2022/08/02 09:41:06;;;;;;;0.65;0.60;;;31.60;52.80;33.40;96794.00;;;;5072325;28;20563;-89
2022/08/02 09:43:45;;;;;;;0.50;0.50;;;31.70;52.50;33.60;96799.00;;;;5072026;28;20203;-89
2022/08/02 09:46:16;;;;;;;0.40;0.40;;;31.80;52.50;33.80;96799.00;;;;5070944;28;20200;-89
2022/08/02 09:48:52;;;;;;;0.50;0.40;;;32.00;52.30;34.10;96798.00;;;;5071531;28;20216;-89
2022/08/02 09:51:25;;;;;;;0.50;0.50;;;32.10;51.70;34.30;96793.00;;;;5066244;28;20205;-90
2022/08/02 09:53:55;;;;;;;1.50;0.73;;;32.30;52.20;34.50;96789.00;;;;5072643;28;20215;-89
2022/08/02 09:56:48;;;;;;;0.47;0.47;;;32.40;51.70;34.70;96790.00;;;;5061904;28;20188;-89
2022/08/02 09:59:17;;;;;;;0.45;0.40;;;32.50;50.90;34.90;96791.00;;;;5057171;28;20700;-85
2022/08/02 10:01:47;;;;;;;0.52;0.40;;;32.70;50.70;35.10;96805.00;;;;5069929;28;20291;-85
2022/08/02 10:04:19;;;;;;;0.70;0.70;;;32.90;50.80;35.30;96798.00;;;;5069685;28;20258;-85
2022/08/02 10:06:49;;;;;;;0.50;0.50;;;33.10;50.50;35.50;96800.00;;;;5071077;28;20254;-85
2022/08/02 10:09:17;;;;;;;0.60;0.50;;;33.30;50.40;35.70;96806.00;;;;5071099;28;20591;-85
2022/08/02 10:11:45;;;;;;;0.52;0.47;;;33.40;49.80;35.90;96795.00;;;;5071724;28;20714;-85
2022/08/02 10:14:13;;;;;;;0.50;0.50;;;33.60;49.60;36.00;96792.00;;;;5071910;28;20224;-85
2022/08/02 10:16:43;;;;;;;0.40;0.40;;;33.80;49.60;36.10;96786.00;;;;5071746;28;20388;-85
2022/08/02 10:19:11;;;;;;;0.45;0.40;;;34.00;48.80;36.20;96789.00;;;;5071499;28;20628;-85
2022/08/02 10:21:49;;;;;;;0.40;0.40;;;34.10;48.50;36.30;96789.00;;;;5071676;28;20553;-85
2022/08/02 10:24:21;;;;;;;1.23;0.40;;;34.30;47.40;36.30;96790.00;;;;5071621;28;20196;-85
2022/08/02 10:26:49;;;;;;;0.50;0.50;;;34.30;47.70;36.40;96798.00;;;;5071914;28;20284;-85
2022/08/02 10:29:20;;;;;;;0.88;0.50;;;34.50;47.80;36.40;96793.00;;;;5070989;28;20337;-85
2022/08/02 10:31:57;;;;;;;0.45;0.40;;;34.50;47.20;36.40;96792.00;;;;5070719;28;20197;-85
2022/08/02 10:34:32;;;;;;;0.32;0.32;;;34.70;46.40;36.40;96784.00;;;;5071448;28;20277;-85
2022/08/02 10:37:14;;;;;;;0.75;0.50;;;34.70;46.20;36.40;96789.00;;;;5069309;28;20525;-85
2022/08/02 10:39:43;;;;;;;0.40;0.40;;;34.80;46.10;36.40;96786.00;;;;5061796;28;20306;-85
2022/08/02 10:42:45;;;;;;;0.35;0.35;;;34.80;46.50;36.40;96783.00;;;;5074716;28;20680;-85
2022/08/02 10:45:15;;;;;;;0.40;0.40;;;35.00;46.20;36.40;96774.00;;;;5074918;28;20195;-85
2022/08/02 10:48:03;;;;;;;0.40;0.40;;;35.00;46.00;36.40;96769.00;;;;5074479;28;20208;-85
2022/08/02 10:50:53;;;;;;;0.57;0.50;;;35.00;44.40;36.40;96771.00;;;;5074005;28;20575;-85
2022/08/02 10:53:29;;;;;;;0.45;0.32;;;35.10;44.70;36.40;96778.00;;;;5074395;28;20224;-85
2022/08/02 10:55:59;;;;;;;0.40;0.40;;;35.10;44.80;36.40;96770.00;;;;5062648;28;20589;-88
2022/08/02 10:58:31;;;;;;;0.40;0.40;;;35.10;45.10;36.30;96765.00;;;;5055302;28;20274;-85
2022/08/02 11:01:03;;;;;;;0.52;0.30;;;35.10;44.50;36.20;96769.00;;;;5054576;28;20547;-85
2022/08/02 11:03:38;;;;;;;0.40;0.40;;;35.10;44.40;36.00;96758.00;;;;5053594;28;20211;-84
2022/08/02 11:06:08;;;;;;;0.28;0.28;;;35.10;44.00;35.80;96751.00;;;;5054061;28;20269;-84
2022/08/02 11:08:37;;;;;;;0.30;0.30;;;35.00;44.00;35.60;96752.00;;;;5064369;28;20269;-85
2022/08/02 11:11:19;;;;;;;0.35;0.32;;;34.90;44.20;35.40;96757.00;;;;5074506;28;20192;-85
2022/08/02 11:14:07;;;;;;;0.50;0.50;;;34.70;43.30;35.10;96740.00;;;;5074076;28;20639;-85
2022/08/02 11:17:13;;;;;;;0.70;0.60;;;34.60;43.00;34.70;96733.00;;;;5068002;28;20192;-85